Soaring Guidance
Issued by NWS Reno, NV

Home | Current Version | Previous Version | Text Only | Print | Product List | Glossary On
Versions: 1 2 3 4 5 6 7 8 9 10 11 12
000
UXUS97 KREV 091446
SRGREV

SOARING FORECAST
NATIONAL WEATHER SERVICE - RENO NV
700 AM PST TUE FEB 9 2016

THIS SOARING FORECAST IS FOR THE EASTERN SIERRA AND WESTERN NEVADA
WITH SPECIFIC INDICES FOR THE GREATER RENO AREA.

THIS FORECAST IS PREPARED DAILY BY 700 AM AND IS NOT UPDATED.

FOR CURRENT FLIGHT CONDITIONS...FORECASTS...AND ADVISORIES...ACCESS
YOUR LOCAL BRIEFING OUTLET OR FLIGHT SERVICE STATION.

*******************************************************************
FORECASTED LOCAL INDICES FOR RENO:        TODAY     YESTERDAY
FORECASTED MAX TEMP AT RENO (DEG F).....     61          57
FORECASTED TRIGGER TEMPERATURE (DEG F)..     71          64
   EXCEEDED YESTERDAY BY 1055 AM PST
FORECASTED MAXIMUM ALTITUDE (FT MSL)....   7100        7600
FORECASTED SOARING INDEX (FPM)..........    213         258
FORECASTED K-INDEX.........VALID 18Z....    -11          -4
FORECASTED K-INDEX.........VALID 00Z....     -2          -4
FORECASTED LIFTED INDEX....VALID 18Z....     12          13
FORECASTED LIFTED INDEX....VALID 00Z....      8          12

AFTERNOON WINDS ALOFT FORECAST
MSL (FT) WIND/TEMP
9000  2112/+09
10000 2114/+06
12000 2219/+02
14000 2219/-03
16000 2319/-08
18000 2419/-14
24000 2519/-28
30000 2525/-41
34000 2523/-51
39000 2433/-59

SLIDE MOUNTAIN DATA:
     DATE       TIME     TEMP  DEWPT   RH         WIND (MPH)
                        (F)   (F)           | DIR  SPEED GUST
2016-02-09    05:00      41    12     18    | 182   13   22
2016-02-09    04:50      42    12     16    | 183   16   20
2016-02-09    04:30      42    12     16    | 180   16   19
2016-02-09    04:20      43    12     15    | 168   17   24

RENO TAF FORECAST:
KRNO 091120Z 0912/1012 VRB03KT P6SM SKC
     FM092100 14006KT P6SM SKC
     FM100200 VRB03KT P6SM SKC

CARSON CITY TAF FORECAST:
KCXP 091120Z 0912/1012 VRB03KT P6SM SKC
     FM092100 11007KT P6SM SKC
     FM100200 VRB03KT P6SM SKC

OUTLOOK FOR THE RENO-CARSON CITY-MINDEN AREA:
.WEDNESDAY...SUNNY IN THE MORNING THEN BECOMING PARTLY CLOUDY.
HIGHS 61 TO 66. LIGHT WINDS.

SUNRISE AND SUNSET
FEBRUARY  9 2016......SUNRISE   659 AM PST   SUNSET   528 PM PST
FEBRUARY 10 2016......SUNRISE   658 AM PST   SUNSET   529 PM PST


USA.gov is the U.S. government's official web portal to all federal, state and local government web resources and services.